airport weather - vejr3
d.16/8 - Nu er de lyse nætter slut. Synlige planeter lige efter solnedgang, ikke så højt over horisonten: Jupiter mod sydvest, Saturn lidt sydligere og Mars mod sydøst.


Vejr3>N more information Vejr3>N


Vejr3>V more information Vejr3>V


rain radar more information rain snow radar


visit our other weather sites:

Template dokumentation
og downloads

And another site


nearby metar reports

   
EKRK - Roskilde
updated: 21-08-2018 23:50
clear  
clear  
   wind: se 1 m/s
wind: se 1 m/s
temperature: 13°C
dew point: 9°C
humidity: 77%
barometer: 1021 hPa
clouds: Clear
visibility: 10 km
cloud details: clear m
EKRK 212150Z AUTO 14002KT 9999NDV NCD 13/09 Q1021
EKCH - Copenhagen
updated: 21-08-2018 23:50
clear  
clear  
   wind: east 2.1 m/s
wind: east 2.1 m/s
temperature: 16°C
dew point: 12°C
humidity: 77%
barometer: 1021 hPa
visibility: More than 10 km
cloud details: clear m
EKCH 212150Z 10004KT CAVOK 16/12 Q1021 NOSIG
EHBK - Maastricht
updated: 21-08-2018 23:55
partly cloudy  
partly cloudy  
   wind: east 0.5 m/s
wind: east 0.5 m/s
temperature: 19°C
dew point: 16°C
humidity: 83%
barometer: 1019 hPa
clouds: Partly Cloudy
visibility: More than 10 km
cloud details: partly cloudy m
EHBK 212155Z AUTO 10001KT 9999 NSC 19/16 Q1019
ELLX - Luxemburg
updated: 21-08-2018 23:50
clear  
clear  
   wind: north 3.6 m/s
wind: north 3.6 m/s
temperature: 21°C
dew point: 15°C
humidity: 69%
barometer: 1019 hPa
visibility: More than 10 km
cloud details: clear m
ELLX 212150Z 36007KT CAVOK 21/15 Q1019 NOSIG
  

script developed by  Saratoga-weather.org adapted for the template by  Weerstation Leuven

you find our weather info also at:

European Weather Network

Weather Underground

AWEKAS

WeatherlinkIP

Citizen Weather Observer Program (CWOP)

equipment we use:

weather-station
Davis VP2+

weather-program
Weather Display

weather-server
Dell E6400

provider
Webhosting.dk

Davis VP2+

Weather Display

Dell E6400

Webhosting.dk